createdAt,value
2022-09-22T00:00:16.978Z,6.00
2022-09-22T00:01:22.067Z,9.20
2022-09-22T00:02:24.116Z,7.40
2022-09-22T00:03:31.168Z,6.20
2022-09-22T00:04:33.433Z,7.30
2022-09-22T00:05:35.322Z,8.40
2022-09-22T00:08:10.702Z,9.90
2022-09-22T00:09:15.581Z,6.45
2022-09-22T00:10:17.918Z,6.50
2022-09-22T00:11:23.463Z,5.80
2022-09-22T00:12:25.395Z,6.20
2022-09-22T00:13:27.260Z,6.22
2022-09-22T00:14:28.907Z,5.56
2022-09-22T00:15:31.128Z,6.90
2022-09-22T00:16:42.806Z,7.40
2022-09-22T00:17:44.828Z,8.30
2022-09-22T00:18:46.701Z,6.20
2022-09-22T00:19:48.441Z,8.11
2022-09-22T00:20:50.450Z,7.11
2022-09-22T00:21:53.816Z,5.67
2022-09-22T00:22:56.778Z,6.80
2022-09-22T00:24:01.289Z,6.10
2022-09-22T00:25:04.330Z,7.20
2022-09-22T00:26:09.237Z,7.50
2022-09-22T00:27:11.550Z,8.10
2022-09-22T00:28:13.426Z,6.10
2022-09-22T00:29:15.611Z,7.22
2022-09-22T00:30:17.707Z,6.10
2022-09-22T00:31:22.449Z,6.89
2022-09-22T00:32:24.267Z,5.90
2022-09-22T00:33:25.982Z,7.56
2022-09-22T00:34:27.722Z,5.89
2022-09-22T00:35:29.544Z,7.00
2022-09-22T00:36:31.984Z,6.44
2022-09-22T00:37:33.965Z,6.80
2022-09-22T00:38:37.943Z,7.20
2022-09-22T00:39:39.974Z,7.00
2022-09-22T00:40:42.051Z,6.30
2022-09-22T00:41:47.457Z,5.90
2022-09-22T00:42:49.430Z,7.00
2022-09-22T00:44:28.581Z,7.70
2022-09-22T00:45:30.443Z,7.70
2022-09-22T00:46:32.353Z,8.50
2022-09-22T00:47:37.832Z,7.89
2022-09-22T00:48:43.287Z,8.20
2022-09-22T00:49:57.938Z,9.70
2022-09-22T00:51:03.377Z,10.60
2022-09-22T00:52:06.605Z,10.80
2022-09-22T00:53:12.193Z,11.20
2022-09-22T00:54:16.847Z,10.40
2022-09-22T00:55:22.372Z,11.20
2022-09-22T00:56:27.964Z,12.00
2022-09-22T00:57:33.270Z,8.70
2022-09-22T00:58:38.785Z,10.80
2022-09-22T00:59:44.014Z,12.10
2022-09-22T01:00:46.007Z,13.00
2022-09-22T01:01:48.558Z,9.50
2022-09-22T01:02:54.254Z,12.50
2022-09-22T01:03:57.204Z,11.40
2022-09-22T01:04:59.052Z,11.40
2022-09-22T01:06:03.610Z,10.11
2022-09-22T01:07:06.193Z,10.70
2022-09-22T01:08:10.122Z,9.10
2022-09-22T01:09:13.363Z,12.10
2022-09-22T01:10:16.770Z,10.70
2022-09-22T01:11:19.414Z,13.50
2022-09-22T01:12:23.041Z,13.60
2022-09-22T01:13:40.071Z,9.10
2022-09-22T01:15:01.882Z,11.50
2022-09-22T01:16:22.920Z,12.60
2022-09-22T01:19:17.791Z,12.20
2022-09-22T01:20:38.732Z,9.30
2022-09-22T01:21:44.387Z,11.90
2022-09-22T01:23:13.100Z,12.20
2022-09-22T01:24:39.585Z,15.50
2022-09-22T01:25:50.909Z,13.80
2022-09-22T01:27:11.720Z,12.00
2022-09-22T01:28:51.036Z,10.30
2022-09-22T01:30:21.896Z,14.50
2022-09-22T01:31:27.465Z,12.40
2022-09-22T01:32:33.015Z,11.10
2022-09-22T01:33:44.524Z,10.00
2022-09-22T01:35:08.281Z,15.30
2022-09-22T01:36:28.537Z,13.80
2022-09-22T01:37:45.908Z,12.30
2022-09-22T01:38:57.206Z,11.00
2022-09-22T01:40:19.245Z,12.00
2022-09-22T01:41:40.258Z,10.60
2022-09-22T01:42:49.002Z,12.20
2022-09-22T01:43:57.382Z,10.00
2022-09-22T01:45:03.567Z,10.60
2022-09-22T01:46:13.169Z,11.00
2022-09-22T01:47:31.117Z,12.20
2022-09-22T01:48:35.269Z,11.00
2022-09-22T01:49:40.753Z,11.20
2022-09-22T01:50:46.371Z,11.90
2022-09-22T01:51:55.532Z,10.80
2022-09-22T01:53:01.030Z,13.00
2022-09-22T01:54:18.771Z,11.00
2022-09-22T01:56:37.379Z,12.90
2022-09-22T01:57:42.920Z,13.00
2022-09-22T01:58:48.444Z,10.60
2022-09-22T01:59:54.185Z,11.30
2022-09-22T02:01:14.298Z,10.00
2022-09-22T02:02:19.360Z,15.10
2022-09-22T02:03:25.144Z,1.30
2022-09-22T02:05:56.607Z,12.10
2022-09-22T02:07:11.409Z,11.30
2022-09-22T02:08:19.527Z,12.50
2022-09-22T02:09:25.069Z,11.80
2022-09-22T02:10:33.378Z,12.60
2022-09-22T02:11:35.554Z,15.70
2022-09-22T02:12:38.023Z,13.10
2022-09-22T02:13:42.762Z,12.10
2022-09-22T02:15:57.356Z,13.50
2022-09-22T02:17:00.319Z,12.30
2022-09-22T02:18:08.269Z,13.20
2022-09-22T02:19:16.750Z,11.60
2022-09-22T02:20:19.285Z,13.50
2022-09-22T02:21:24.373Z,11.80
2022-09-22T02:22:26.420Z,12.60
2022-09-22T02:23:30.470Z,12.33
2022-09-22T02:24:44.078Z,15.00
2022-09-22T02:25:47.556Z,10.30
2022-09-22T02:26:49.741Z,16.40
2022-09-22T02:27:56.181Z,14.70
2022-09-22T02:29:01.695Z,11.30
2022-09-22T02:30:10.338Z,13.00
2022-09-22T02:31:21.061Z,11.10
2022-09-22T02:32:18.729Z,12.80
2022-09-22T02:33:22.977Z,12.00
2022-09-22T02:34:25.728Z,13.70
2022-09-22T02:35:31.004Z,12.45
2022-09-22T02:36:36.611Z,13.60
2022-09-22T02:37:48.161Z,13.10
2022-09-22T02:38:53.665Z,13.20
2022-09-22T02:40:16.703Z,12.80
2022-09-22T02:41:22.789Z,13.10
2022-09-22T02:42:46.307Z,16.10
2022-09-22T02:44:00.542Z,17.20
2022-09-22T02:45:12.004Z,14.30
2022-09-22T02:46:34.915Z,11.00
2022-09-22T02:47:40.652Z,16.10
2022-09-22T02:48:46.195Z,13.20
2022-09-22T02:49:50.048Z,13.60
2022-09-22T02:50:54.434Z,9.80
2022-09-22T02:51:59.393Z,13.80
2022-09-22T02:53:04.230Z,16.30
2022-09-22T02:54:06.173Z,12.00
2022-09-22T02:55:11.767Z,14.40
2022-09-22T02:56:15.064Z,10.90
2022-09-22T02:57:16.857Z,12.20
2022-09-22T02:58:18.463Z,14.44
2022-09-22T02:59:21.740Z,12.78
2022-09-22T03:00:23.777Z,12.60
2022-09-22T03:01:26.248Z,13.44
2022-09-22T03:02:28.190Z,11.60
2022-09-22T03:03:30.347Z,13.56
2022-09-22T03:04:32.282Z,14.90
2022-09-22T03:05:34.164Z,11.50
2022-09-22T03:06:36.213Z,12.00
2022-09-22T03:07:38.091Z,12.22
2022-09-22T03:08:40.145Z,12.11
2022-09-22T03:09:41.985Z,14.00
2022-09-22T03:10:43.855Z,14.11
2022-09-22T03:11:46.178Z,10.33
2022-09-22T03:13:14.464Z,12.70
2022-09-22T03:13:52.359Z,9.50
2022-09-22T03:14:54.258Z,10.70
2022-09-22T03:15:57.067Z,12.89
2022-09-22T03:16:59.364Z,12.80
2022-09-22T03:18:01.079Z,12.10
2022-09-22T03:19:02.925Z,13.67
2022-09-22T03:20:06.085Z,13.60
2022-09-22T03:21:07.872Z,14.91
2022-09-22T03:22:09.683Z,11.89
2022-09-22T03:23:11.867Z,13.11
2022-09-22T03:24:14.895Z,9.80
2022-09-22T03:25:16.995Z,13.60
2022-09-22T03:26:18.892Z,14.30
2022-09-22T03:27:21.885Z,14.11
2022-09-22T03:28:23.872Z,9.82
2022-09-22T03:29:26.815Z,10.80
2022-09-22T03:30:28.868Z,11.18
2022-09-22T03:31:30.630Z,12.00
2022-09-22T03:32:32.500Z,11.33
2022-09-22T03:33:34.449Z,10.00
2022-09-22T03:34:36.279Z,13.33
2022-09-22T03:35:38.117Z,12.33
2022-09-22T03:36:40.061Z,12.56
2022-09-22T03:37:42.460Z,11.78
2022-09-22T03:38:44.429Z,11.30
2022-09-22T03:39:46.185Z,11.78
2022-09-22T03:40:52.467Z,7.89
2022-09-22T03:41:54.451Z,13.30
2022-09-22T03:42:56.445Z,7.89
2022-09-22T03:43:58.495Z,5.20
2022-09-22T03:45:00.403Z,12.30
2022-09-22T03:46:03.656Z,14.33
2022-09-22T03:47:05.675Z,13.80
2022-09-22T03:48:07.422Z,11.22
2022-09-22T03:49:09.195Z,12.78
2022-09-22T03:50:12.143Z,13.70
2022-09-22T03:51:14.682Z,10.50
2022-09-22T03:52:16.611Z,11.90
2022-09-22T03:53:18.580Z,13.20
2022-09-22T03:54:21.871Z,13.89
2022-09-22T03:55:23.707Z,15.70
2022-09-22T03:56:25.894Z,14.40
2022-09-22T03:57:29.054Z,12.10
2022-09-22T03:58:31.550Z,9.50
2022-09-22T03:59:33.489Z,13.80
2022-09-22T04:00:35.479Z,9.89
2022-09-22T04:01:37.359Z,11.22
2022-09-22T04:02:39.604Z,10.44
2022-09-22T04:03:41.358Z,11.20
2022-09-22T04:04:43.411Z,13.44
2022-09-22T04:05:51.210Z,13.22
2022-09-22T04:06:53.964Z,12.50
2022-09-22T04:07:55.883Z,14.30
2022-09-22T04:08:57.735Z,14.89
2022-09-22T04:09:59.810Z,14.78
2022-09-22T04:11:03.918Z,12.11
2022-09-22T04:12:06.160Z,15.70
2022-09-22T04:13:08.331Z,14.60
2022-09-22T04:14:10.755Z,13.90
2022-09-22T04:15:13.806Z,14.90
2022-09-22T04:16:16.831Z,17.80
2022-09-22T04:17:18.680Z,14.70
2022-09-22T04:18:20.522Z,15.22
2022-09-22T04:19:22.668Z,17.20
2022-09-22T04:20:25.015Z,12.00
2022-09-22T04:21:26.827Z,14.20
2022-09-22T04:22:29.847Z,12.89
2022-09-22T04:23:32.088Z,13.40
2022-09-22T04:24:33.960Z,14.30
2022-09-22T04:25:36.881Z,16.33
2022-09-22T04:26:47.595Z,17.60
2022-09-22T04:27:42.569Z,12.70
2022-09-22T04:28:44.459Z,16.56
2022-09-22T04:29:47.592Z,13.11
2022-09-22T04:30:49.887Z,14.20
2022-09-22T04:31:51.870Z,11.80
2022-09-22T04:32:54.143Z,13.56
2022-09-22T04:33:56.533Z,13.30
2022-09-22T04:34:59.270Z,13.40
2022-09-22T04:36:01.696Z,16.27
2022-09-22T04:37:03.685Z,13.90
2022-09-22T04:38:05.578Z,13.50
2022-09-22T04:39:07.212Z,14.33
2022-09-22T04:40:09.562Z,15.56
2022-09-22T04:41:12.563Z,12.70
2022-09-22T04:42:14.405Z,13.90
2022-09-22T04:43:16.432Z,14.00
2022-09-22T04:44:18.123Z,15.20
2022-09-22T04:45:20.491Z,13.22
2022-09-22T04:46:22.616Z,11.90
2022-09-22T04:47:25.605Z,13.00
2022-09-22T04:48:27.546Z,13.73
2022-09-22T04:49:29.662Z,12.20
2022-09-22T04:50:32.175Z,11.40
2022-09-22T04:51:36.387Z,9.20
2022-09-22T04:52:38.287Z,8.50
2022-09-22T04:53:40.033Z,13.89
2022-09-22T04:54:41.671Z,13.78
2022-09-22T04:55:43.611Z,12.89
2022-09-22T04:56:45.511Z,12.90
2022-09-22T04:57:49.743Z,13.56
2022-09-22T04:58:51.626Z,13.00
2022-09-22T04:59:53.505Z,12.00
2022-09-22T05:00:55.382Z,14.22
2022-09-22T05:01:57.366Z,12.60
2022-09-22T05:02:59.057Z,12.89
2022-09-22T05:04:01.465Z,14.89
2022-09-22T05:05:04.225Z,10.70
2022-09-22T05:06:07.220Z,11.30
2022-09-22T05:07:10.180Z,10.90
2022-09-22T05:08:13.141Z,10.30
2022-09-22T05:09:15.001Z,11.00
2022-09-22T05:10:17.278Z,9.20
2022-09-22T05:11:19.150Z,12.11
2022-09-22T05:12:21.101Z,8.89
2022-09-22T05:13:24.158Z,10.00
2022-09-22T05:14:27.018Z,9.30
2022-09-22T05:15:30.113Z,11.91
2022-09-22T05:16:32.138Z,10.60
2022-09-22T05:17:34.697Z,10.80
2022-09-22T05:18:36.500Z,9.10
2022-09-22T05:19:39.043Z,13.11
2022-09-22T05:20:43.424Z,9.91
2022-09-22T05:21:45.394Z,11.60
2022-09-22T05:22:47.770Z,10.67
2022-09-22T05:23:50.545Z,7.90
2022-09-22T05:24:52.749Z,11.20
2022-09-22T05:25:55.635Z,11.10
2022-09-22T05:26:57.912Z,8.40
2022-09-22T05:27:59.880Z,5.90
2022-09-22T05:29:02.122Z,9.70
2022-09-22T05:30:05.560Z,10.80
2022-09-22T05:31:08.351Z,10.00
2022-09-22T05:32:11.368Z,11.73
2022-09-22T05:33:13.117Z,11.60
2022-09-22T05:34:15.580Z,8.78
2022-09-22T05:35:20.624Z,11.60
2022-09-22T05:36:22.655Z,11.20
2022-09-22T05:37:24.533Z,9.00
2022-09-22T05:38:26.198Z,9.44
2022-09-22T05:39:28.148Z,10.78
2022-09-22T05:40:29.933Z,10.00
2022-09-22T05:41:31.819Z,11.56
2022-09-22T05:42:34.783Z,11.11
2022-09-22T05:43:36.650Z,11.82
2022-09-22T05:44:38.763Z,13.20
2022-09-22T05:45:41.301Z,11.33
2022-09-22T05:46:44.386Z,11.70
2022-09-22T05:47:46.490Z,13.56
2022-09-22T05:48:48.663Z,13.40
2022-09-22T05:49:50.572Z,11.30
2022-09-22T05:50:52.345Z,10.11
2022-09-22T05:51:53.985Z,14.89
2022-09-22T05:53:09.684Z,13.67
2022-09-22T05:54:12.249Z,10.20
2022-09-22T05:55:14.026Z,12.20
2022-09-22T05:56:16.038Z,12.40
2022-09-22T05:57:17.764Z,13.56
2022-09-22T05:58:19.634Z,12.00
2022-09-22T05:59:22.528Z,10.78
2022-09-22T06:00:25.498Z,11.10
2022-09-22T06:01:27.411Z,11.60
2022-09-22T06:02:30.134Z,14.10
2022-09-22T06:03:31.990Z,10.90
2022-09-22T06:04:34.251Z,10.89
2022-09-22T06:05:39.283Z,10.70
2022-09-22T06:06:41.670Z,12.70
2022-09-22T06:07:43.650Z,14.90
2022-09-22T06:08:48.936Z,12.90
2022-09-22T06:09:49.694Z,13.00
2022-09-22T06:10:53.098Z,11.80
2022-09-22T06:11:54.941Z,17.40
2022-09-22T06:13:01.536Z,14.56
2022-09-22T06:14:03.450Z,13.90
2022-09-22T06:15:06.552Z,12.89
2022-09-22T06:16:09.065Z,11.90
2022-09-22T06:17:11.858Z,12.60
2022-09-22T06:18:15.665Z,15.27
2022-09-22T06:19:19.880Z,17.80
2022-09-22T06:20:22.805Z,14.00
2022-09-22T06:21:25.265Z,12.80
2022-09-22T06:22:27.080Z,12.11
2022-09-22T06:23:29.502Z,15.10
2022-09-22T06:24:31.679Z,14.00
2022-09-22T06:25:34.663Z,15.40
2022-09-22T06:26:37.832Z,14.70
2022-09-22T06:27:39.757Z,14.40
2022-09-22T06:28:41.362Z,13.11
2022-09-22T06:29:43.110Z,13.44
2022-09-22T06:30:45.187Z,15.78
2022-09-22T06:31:47.135Z,10.30
2022-09-22T06:32:54.539Z,12.20
2022-09-22T06:33:56.287Z,14.50
2022-09-22T06:34:57.890Z,10.56
2022-09-22T06:35:59.662Z,10.44
2022-09-22T06:37:01.987Z,11.67
2022-09-22T06:38:09.619Z,11.30
2022-09-22T06:39:12.180Z,12.00
2022-09-22T06:40:17.468Z,10.90
2022-09-22T06:41:17.899Z,10.60
2022-09-22T06:42:19.859Z,9.33
2022-09-22T06:43:21.745Z,11.60
2022-09-22T06:44:23.504Z,13.00
2022-09-22T06:45:26.033Z,11.56
2022-09-22T06:46:31.597Z,10.18
2022-09-22T06:47:33.530Z,13.50
2022-09-22T06:48:35.161Z,13.22
2022-09-22T06:49:36.806Z,11.00
2022-09-22T06:50:40.037Z,14.22
2022-09-22T06:51:42.482Z,13.20
2022-09-22T06:52:44.170Z,10.30
2022-09-22T06:53:51.232Z,9.78
2022-09-22T06:54:53.081Z,13.40
2022-09-22T06:55:54.603Z,11.70
2022-09-22T06:56:56.707Z,12.30
2022-09-22T06:57:59.748Z,10.00
2022-09-22T06:59:10.832Z,14.00
2022-09-22T07:00:09.311Z,13.50
2022-09-22T07:01:11.378Z,14.60
2022-09-22T07:02:15.384Z,10.10
2022-09-22T07:03:24.516Z,12.80
2022-09-22T07:04:26.256Z,11.60
2022-09-22T07:05:27.972Z,12.22
2022-09-22T07:06:29.925Z,14.89
2022-09-22T07:07:31.781Z,14.33
2022-09-22T07:08:35.265Z,11.11
2022-09-22T07:09:37.398Z,9.40
2022-09-22T07:10:40.519Z,17.70
2022-09-22T07:11:43.361Z,20.00
2022-09-22T07:12:45.390Z,10.82
2022-09-22T07:13:47.360Z,15.10
2022-09-22T07:14:49.104Z,13.11
2022-09-22T07:15:52.404Z,13.11
2022-09-22T07:16:54.940Z,12.80
2022-09-22T07:17:56.762Z,8.80
2022-09-22T07:18:58.526Z,7.44
2022-09-22T07:20:00.393Z,11.44
2022-09-22T07:21:07.844Z,12.11
2022-09-22T07:22:09.891Z,10.90
2022-09-22T07:23:13.774Z,10.11
2022-09-22T07:24:15.585Z,7.60
2022-09-22T07:25:19.476Z,10.89
2022-09-22T07:26:24.580Z,9.60
2022-09-22T07:27:26.914Z,9.50
2022-09-22T07:28:29.787Z,10.30
2022-09-22T07:29:33.053Z,8.40
2022-09-22T07:30:34.941Z,8.70
2022-09-22T07:31:37.222Z,11.44
2022-09-22T07:32:39.344Z,10.60
2022-09-22T07:33:43.130Z,7.22
2022-09-22T07:34:44.950Z,5.90
2022-09-22T07:35:46.585Z,7.89
2022-09-22T07:36:48.393Z,8.44
2022-09-22T07:37:54.072Z,8.00
2022-09-22T07:38:57.981Z,9.60
2022-09-22T07:39:59.781Z,8.40
2022-09-22T07:41:04.769Z,7.00
2022-09-22T07:42:06.823Z,6.50
2022-09-22T07:43:09.694Z,10.60
2022-09-22T07:44:13.462Z,4.91
2022-09-22T07:45:15.564Z,7.80
2022-09-22T07:46:18.376Z,7.20
2022-09-22T07:47:20.755Z,9.20
2022-09-22T07:48:25.488Z,8.60
2022-09-22T07:49:27.451Z,6.60
2022-09-22T07:50:29.854Z,7.40
2022-09-22T07:51:31.615Z,7.60
2022-09-22T07:52:34.301Z,6.89
2022-09-22T07:53:38.449Z,7.30
2022-09-22T07:54:40.575Z,6.70
2022-09-22T07:55:43.238Z,6.00
2022-09-22T07:56:45.166Z,7.20
2022-09-22T07:57:56.328Z,7.00
2022-09-22T07:59:00.482Z,9.30
2022-09-22T08:00:03.974Z,7.50
2022-09-22T08:01:09.324Z,6.80
2022-09-22T08:02:11.582Z,5.00
2022-09-22T08:03:13.374Z,6.50
2022-09-22T08:04:18.034Z,8.78
2022-09-22T08:05:21.183Z,6.20
2022-09-22T08:06:24.101Z,4.90
2022-09-22T08:07:26.007Z,6.18
2022-09-22T08:08:27.950Z,6.33
2022-09-22T08:09:30.202Z,7.56
2022-09-22T08:10:32.009Z,5.80
2022-09-22T08:11:33.731Z,6.33
2022-09-22T08:12:36.106Z,5.56
2022-09-22T08:13:39.185Z,5.80
2022-09-22T08:14:42.238Z,5.60
2022-09-22T08:15:44.249Z,5.90
2022-09-22T08:16:46.691Z,3.60
2022-09-22T08:17:49.182Z,5.80
2022-09-22T08:18:53.108Z,5.60
2022-09-22T08:19:55.156Z,5.40
2022-09-22T08:20:58.055Z,7.50
2022-09-22T08:22:00.797Z,6.10
2022-09-22T08:23:03.786Z,6.36
2022-09-22T08:24:07.816Z,5.91
2022-09-22T08:25:10.865Z,6.10
2022-09-22T08:26:12.919Z,6.80
2022-09-22T08:27:14.657Z,6.67
2022-09-22T08:28:16.366Z,4.00
2022-09-22T08:29:18.117Z,6.56
2022-09-22T08:30:20.047Z,5.78
2022-09-22T08:31:23.990Z,7.33
2022-09-22T08:32:26.374Z,5.20
2022-09-22T08:33:31.996Z,7.10
2022-09-22T08:34:33.856Z,6.10
2022-09-22T08:35:35.903Z,5.89
2022-09-22T08:36:37.920Z,5.70
2022-09-22T08:37:40.256Z,4.78
2022-09-22T08:38:41.984Z,5.90
2022-09-22T08:39:44.127Z,7.11
2022-09-22T08:40:49.857Z,7.20
2022-09-22T08:42:05.689Z,5.50
2022-09-22T08:43:11.894Z,3.80
2022-09-22T08:44:20.349Z,5.80
2022-09-22T08:45:37.328Z,5.80
2022-09-22T08:46:41.716Z,6.10
2022-09-22T08:47:47.458Z,6.10
2022-09-22T08:48:51.480Z,6.00
2022-09-22T08:49:53.437Z,6.70
2022-09-22T08:52:29.573Z,6.80
2022-09-22T08:53:35.085Z,5.30
2022-09-22T08:54:37.125Z,6.30
2022-09-22T08:55:41.428Z,6.50
2022-09-22T08:57:20.023Z,4.50
2022-09-22T08:58:29.118Z,5.60
2022-09-22T09:00:58.144Z,7.60
2022-09-22T09:02:04.287Z,6.20
2022-09-22T09:03:28.621Z,6.70
2022-09-22T09:04:40.294Z,5.40
2022-09-22T09:06:01.090Z,6.80
2022-09-22T09:07:22.033Z,7.00
2022-09-22T09:08:39.808Z,6.00
2022-09-22T09:09:57.237Z,5.80
2022-09-22T09:11:31.959Z,6.60
2022-09-22T09:12:57.015Z,6.40
2022-09-22T09:14:05.817Z,7.10
2022-09-22T09:15:46.010Z,1.50
2022-09-22T09:19:35.184Z,6.60
2022-09-22T09:20:46.281Z,7.70
2022-09-22T09:21:53.569Z,6.30
2022-09-22T09:22:56.961Z,3.70
2022-09-22T09:25:27.763Z,5.20
2022-09-22T09:26:15.791Z,5.60
2022-09-22T09:27:23.297Z,9.90
2022-09-22T09:28:34.691Z,6.80
2022-09-22T09:29:46.077Z,6.60
2022-09-22T09:30:52.081Z,8.00
2022-09-22T09:31:57.394Z,6.50
2022-09-22T09:33:05.706Z,7.10
2022-09-22T09:34:11.314Z,9.20
2022-09-22T09:36:49.589Z,7.50
2022-09-22T09:37:55.787Z,8.70
2022-09-22T09:38:59.909Z,8.40
2022-09-22T09:40:05.651Z,5.90
2022-09-22T09:41:14.410Z,8.90
2022-09-22T09:42:27.299Z,10.40
2022-09-22T09:43:30.628Z,7.30
2022-09-22T09:44:37.393Z,8.40
2022-09-22T09:46:04.240Z,7.90
2022-09-22T09:47:16.584Z,6.50
2022-09-22T09:48:42.280Z,6.00
2022-09-22T09:49:45.533Z,8.70
2022-09-22T09:50:47.652Z,9.40
2022-09-22T09:51:55.802Z,10.40
2022-09-22T09:52:59.509Z,6.70
2022-09-22T09:54:03.253Z,6.40
2022-09-22T09:55:26.696Z,11.80
2022-09-22T09:56:28.228Z,11.20
2022-09-22T09:57:30.134Z,6.00
2022-09-22T09:58:31.819Z,7.00
2022-09-22T09:59:37.293Z,27.00
2022-09-22T10:00:57.468Z,23.30
2022-09-22T10:02:00.555Z,10.00
2022-09-22T10:03:06.624Z,12.80
2022-09-22T10:04:36.607Z,10.80
2022-09-22T10:05:38.874Z,10.10
2022-09-22T10:06:41.047Z,11.70
2022-09-22T10:07:45.852Z,7.56
2022-09-22T10:08:49.416Z,11.60
2022-09-22T10:09:52.957Z,17.60
2022-09-22T10:10:57.809Z,7.00
2022-09-22T10:12:01.959Z,7.80
2022-09-22T10:13:07.924Z,1.80
2022-09-22T10:14:19.077Z,11.10
2022-09-22T10:15:24.575Z,6.60
2022-09-22T10:16:29.546Z,6.40
2022-09-22T10:17:40.567Z,5.50
2022-09-22T10:18:44.028Z,4.50
2022-09-22T10:19:45.870Z,5.50
2022-09-22T10:21:06.859Z,4.56
2022-09-22T10:22:18.646Z,4.00
2022-09-22T10:23:22.670Z,3.60
2022-09-22T10:24:30.471Z,5.90
2022-09-22T10:25:32.489Z,11.90
2022-09-22T10:26:34.466Z,15.20
2022-09-22T10:27:36.784Z,14.00
2022-09-22T10:28:39.468Z,31.40
2022-09-22T10:29:41.340Z,7.30
2022-09-22T10:30:45.448Z,16.10
2022-09-22T10:32:05.723Z,4.80
2022-09-22T10:33:22.331Z,27.70
2022-09-22T10:34:31.128Z,4.10
2022-09-22T10:35:35.289Z,5.30
2022-09-22T10:36:40.893Z,5.20
2022-09-22T10:37:43.953Z,7.30
2022-09-22T10:38:48.297Z,7.00
2022-09-22T10:39:52.704Z,9.10
2022-09-22T10:41:07.360Z,15.20
2022-09-22T10:42:27.838Z,8.20
2022-09-22T10:43:51.717Z,6.60
2022-09-22T10:45:00.661Z,17.10
2022-09-22T10:46:21.175Z,5.30
2022-09-22T10:47:39.362Z,8.10
2022-09-22T10:49:08.025Z,5.70
2022-09-22T10:50:19.838Z,7.20
2022-09-22T10:52:45.431Z,6.20
2022-09-22T10:54:09.321Z,6.60
2022-09-22T10:55:17.553Z,6.20
2022-09-22T10:56:41.824Z,8.70
2022-09-22T10:58:09.538Z,5.70
2022-09-22T10:59:40.165Z,6.10
2022-09-22T11:00:42.319Z,20.70
2022-09-22T11:01:52.039Z,12.40
2022-09-22T11:03:21.018Z,13.30
2022-09-22T11:04:42.626Z,7.20
2022-09-22T11:05:54.091Z,13.10
2022-09-22T11:07:12.774Z,20.70
2022-09-22T11:08:17.919Z,5.40
2022-09-22T11:09:29.778Z,6.20
2022-09-22T11:10:51.331Z,6.50
2022-09-22T11:12:16.541Z,15.00
2022-09-22T11:13:34.001Z,8.00
2022-09-22T11:15:05.362Z,5.00
2022-09-22T11:16:14.443Z,11.60
2022-09-22T11:17:45.512Z,4.90
2022-09-22T11:19:09.037Z,4.50
2022-09-22T11:20:22.023Z,3.80
2022-09-22T11:22:03.854Z,6.20
2022-09-22T11:23:31.012Z,5.10
2022-09-22T11:24:49.272Z,7.50
2022-09-22T11:26:04.042Z,2.40
2022-09-22T11:27:09.536Z,5.60
2022-09-22T11:28:18.585Z,4.00
2022-09-22T11:29:43.016Z,5.80
2022-09-22T11:30:53.666Z,6.90
2022-09-22T11:32:19.285Z,4.20
2022-09-22T11:33:51.062Z,6.30
2022-09-22T11:34:59.205Z,5.80
2022-09-22T11:36:04.827Z,4.20
2022-09-22T11:37:20.037Z,6.90
2022-09-22T11:38:48.196Z,4.90
2022-09-22T11:40:11.185Z,3.80
2022-09-22T11:41:28.978Z,6.80
2022-09-22T11:42:43.861Z,9.60
2022-09-22T11:43:55.657Z,4.80
2022-09-22T11:45:08.817Z,6.10
2022-09-22T11:46:17.514Z,4.10
2022-09-22T11:47:29.154Z,4.10
2022-09-22T11:48:38.259Z,2.20
2022-09-22T11:50:16.076Z,4.60
2022-09-22T11:51:39.172Z,5.90
2022-09-22T11:52:58.518Z,4.80
2022-09-22T11:55:28.041Z,5.00
2022-09-22T11:56:55.597Z,6.20
2022-09-22T11:58:00.825Z,4.70
2022-09-22T11:59:13.594Z,4.00
2022-09-22T12:00:18.795Z,4.50
2022-09-22T12:01:24.816Z,4.30
2022-09-22T12:02:47.072Z,3.00
2022-09-22T12:05:15.031Z,5.30
2022-09-22T12:06:20.988Z,5.60
2022-09-22T12:07:29.466Z,6.10
2022-09-22T12:08:38.216Z,6.50
2022-09-22T12:09:50.044Z,6.40
2022-09-22T12:10:52.035Z,6.50
2022-09-22T12:11:56.165Z,3.67
2022-09-22T12:12:59.397Z,6.50
2022-09-22T12:14:02.659Z,6.90
2022-09-22T12:15:12.405Z,4.70
2022-09-22T12:16:18.093Z,6.20
2022-09-22T12:17:32.805Z,3.50
2022-09-22T12:18:55.124Z,5.00
2022-09-22T12:20:06.624Z,4.30
2022-09-22T12:21:33.908Z,6.10
2022-09-22T12:22:59.810Z,6.10
2022-09-22T12:24:03.552Z,5.10
2022-09-22T12:25:16.721Z,5.30
2022-09-22T12:26:33.446Z,6.20
2022-09-22T12:27:35.605Z,4.70
2022-09-22T12:28:41.092Z,3.30
2022-09-22T12:29:43.272Z,5.70
2022-09-22T12:30:55.935Z,6.60
2022-09-22T12:31:59.457Z,4.00
2022-09-22T12:33:02.427Z,7.10
2022-09-22T12:34:07.524Z,5.90
2022-09-22T12:35:27.476Z,5.90
2022-09-22T12:36:32.285Z,5.70
2022-09-22T12:37:38.625Z,7.60
2022-09-22T12:38:42.611Z,5.60
2022-09-22T12:39:48.648Z,6.80
2022-09-22T12:40:54.071Z,5.50
2022-09-22T12:42:02.037Z,5.90
2022-09-22T12:43:05.677Z,6.00
2022-09-22T12:44:11.013Z,4.70
2022-09-22T12:45:22.254Z,6.30
2022-09-22T12:46:26.434Z,5.30
2022-09-22T12:47:35.483Z,3.20
2022-09-22T12:48:38.047Z,4.30
2022-09-22T12:49:54.413Z,5.30
2022-09-22T12:51:28.040Z,6.00
2022-09-22T12:52:45.426Z,6.40
2022-09-22T12:54:49.434Z,5.40
2022-09-22T12:55:53.678Z,5.11
2022-09-22T12:56:59.871Z,5.30
2022-09-22T12:58:01.833Z,6.00
2022-09-22T12:59:07.668Z,4.30
2022-09-22T13:00:13.834Z,4.20
2022-09-22T13:01:33.610Z,6.30
2022-09-22T13:02:42.624Z,6.50
2022-09-22T13:03:49.821Z,6.70
2022-09-22T13:05:01.028Z,4.90
2022-09-22T13:06:25.576Z,5.00
2022-09-22T13:07:41.638Z,5.60
2022-09-22T13:08:49.805Z,8.00
2022-09-22T13:10:12.722Z,6.20
2022-09-22T13:11:14.857Z,7.00
2022-09-22T13:12:20.301Z,7.30
2022-09-22T13:13:35.428Z,7.30
2022-09-22T13:15:07.828Z,6.00
2022-09-22T13:16:20.116Z,5.40
2022-09-22T13:17:48.160Z,5.30
2022-09-22T13:18:53.741Z,4.60
2022-09-22T13:19:55.604Z,8.30
2022-09-22T13:20:59.689Z,3.70
2022-09-22T13:22:15.357Z,4.90
2022-09-22T13:23:17.639Z,6.40
2022-09-22T13:24:19.552Z,6.80
2022-09-22T13:25:29.370Z,5.90
2022-09-22T13:26:38.735Z,5.60
2022-09-22T13:27:40.457Z,7.30
2022-09-22T13:28:43.663Z,6.11
2022-09-22T13:29:57.749Z,6.30
2022-09-22T13:31:05.963Z,2.50
2022-09-22T13:32:18.762Z,5.70
2022-09-22T13:33:23.395Z,4.40
2022-09-22T13:34:31.382Z,5.20
2022-09-22T13:35:37.849Z,4.00
2022-09-22T13:36:42.680Z,5.20
2022-09-22T13:37:45.228Z,4.20
2022-09-22T13:38:50.678Z,6.20
2022-09-22T13:39:54.286Z,4.90
2022-09-22T13:40:58.162Z,4.90
2022-09-22T13:42:09.770Z,5.30
2022-09-22T13:43:14.666Z,5.10
2022-09-22T13:44:23.083Z,5.00
2022-09-22T13:45:25.620Z,4.20
2022-09-22T13:46:31.663Z,6.00
2022-09-22T13:47:34.829Z,5.50
2022-09-22T13:48:39.420Z,7.80
2022-09-22T13:49:48.806Z,8.90
2022-09-22T13:50:58.972Z,7.30
2022-09-22T13:52:07.289Z,5.20
2022-09-22T13:53:11.131Z,5.30
2022-09-22T13:54:16.623Z,4.00
2022-09-22T13:55:33.421Z,5.90
2022-09-22T13:56:35.622Z,6.30
2022-09-22T13:57:38.567Z,8.00
2022-09-22T13:58:44.030Z,6.36
2022-09-22T13:59:47.083Z,3.90
2022-09-22T14:01:13.107Z,6.60
2022-09-22T14:02:06.097Z,3.60
2022-09-22T14:03:19.583Z,4.30
2022-09-22T14:04:26.655Z,5.80
2022-09-22T14:05:34.507Z,5.50
2022-09-22T14:06:36.662Z,6.20
2022-09-22T14:07:55.139Z,5.10
2022-09-22T14:08:45.413Z,5.60
2022-09-22T14:09:51.191Z,5.70
2022-09-22T14:10:53.532Z,5.60
2022-09-22T14:11:57.264Z,7.00
2022-09-22T14:12:59.135Z,7.50
2022-09-22T14:14:03.036Z,6.20
2022-09-22T14:15:34.726Z,7.30
2022-09-22T14:16:58.365Z,6.20
2022-09-22T14:18:01.308Z,5.90
2022-09-22T14:19:07.348Z,5.45
2022-09-22T14:20:09.603Z,7.30
2022-09-22T14:21:13.219Z,6.70
2022-09-22T14:22:18.424Z,7.70
2022-09-22T14:23:32.947Z,7.60
2022-09-22T14:24:35.405Z,9.50
2022-09-22T14:25:37.419Z,7.00
2022-09-22T14:26:43.180Z,3.00
2022-09-22T14:27:52.155Z,6.00
2022-09-22T14:28:56.112Z,6.70
2022-09-22T14:30:00.624Z,5.60
2022-09-22T14:31:12.261Z,6.40
2022-09-22T14:32:23.892Z,6.20
2022-09-22T14:33:30.443Z,4.30
2022-09-22T14:34:35.155Z,7.70
2022-09-22T14:35:37.407Z,8.60
2022-09-22T14:36:42.957Z,6.10
2022-09-22T14:37:48.519Z,5.10
2022-09-22T14:39:06.846Z,6.30
2022-09-22T14:40:01.554Z,7.40
2022-09-22T14:41:05.622Z,4.60
2022-09-22T14:42:16.889Z,6.20
2022-09-22T14:43:33.964Z,9.70
2022-09-22T14:44:45.765Z,2.30
2022-09-22T14:46:00.414Z,6.50
2022-09-22T14:47:21.418Z,5.70
2022-09-22T14:48:30.449Z,6.90
2022-09-22T14:49:36.096Z,6.20
2022-09-22T14:50:50.730Z,8.70
2022-09-22T14:51:53.226Z,5.60
2022-09-22T14:52:58.690Z,6.10
2022-09-22T14:54:02.015Z,6.70